Time,TemperatureF,DewpointF,PressureIn,WindDirection,WindDirectionDegrees,WindSpeedMPH,WindSpeedGustMPH,Humidity,HourlyPrecipIn,Conditions,Clouds,dailyrainin,SoftwareType,DateUTC
2013-11-16 00:13:00,49.2,38.0,30.16,ENE,73,1.0,7.0,66,0.00,,,0.00,weatherlink.com 1.10,2013-11-16 05:13:00,
2013-11-16 00:28:00,48.9,38.0,30.16,NW,315,0.0,7.0,66,0.00,,,0.00,weatherlink.com 1.10,2013-11-16 05:28:00,
2013-11-16 00:43:00,48.8,38.0,30.16,SW,232,1.0,4.0,67,0.00,,,0.00,weatherlink.com 1.10,2013-11-16 05:43:00,
2013-11-16 00:58:00,49.0,39.0,30.16,WSW,237,2.0,5.0,68,0.00,,,0.00,weatherlink.com 1.10,2013-11-16 05:58:00,
2013-11-16 01:13:00,48.9,39.0,30.17,WNW,293,3.0,7.0,70,0.00,,,0.00,weatherlink.com 1.10,2013-11-16 06:13:00,
2013-11-16 01:28:00,48.4,39.0,30.18,West,259,0.0,2.0,71,0.00,,,0.00,weatherlink.com 1.10,2013-11-16 06:28:00,
2013-11-16 01:43:00,48.0,39.0,30.19,SSW,211,0.0,2.0,72,0.00,,,0.00,weatherlink.com 1.10,2013-11-16 06:43:00,
2013-11-16 01:58:00,47.2,39.0,30.19,West,273,0.0,2.0,73,0.00,,,0.00,weatherlink.com 1.10,2013-11-16 06:58:00,
2013-11-16 02:13:00,45.9,38.0,30.19,West,273,0.0,0.0,74,0.00,,,0.00,weatherlink.com 1.10,2013-11-16 07:13:00,
2013-11-16 02:29:00,44.4,38.0,30.19,West,273,0.0,0.0,77,0.00,,,0.00,weatherlink.com 1.10,2013-11-16 07:29:00,
2013-11-16 02:44:00,42.5,36.0,30.18,West,273,0.0,0.0,78,0.00,,,0.00,weatherlink.com 1.10,2013-11-16 07:44:00,
2013-11-16 02:59:00,40.6,35.0,30.19,West,273,0.0,0.0,81,0.00,,,0.00,weatherlink.com 1.10,2013-11-16 07:59:00,
2013-11-16 03:14:00,38.6,34.0,30.18,West,273,0.0,0.0,83,0.00,,,0.00,weatherlink.com 1.10,2013-11-16 08:14:00,
2013-11-16 03:29:00,37.6,34.0,30.17,West,274,0.0,1.0,86,0.00,,,0.00,weatherlink.com 1.10,2013-11-16 08:29:00,
2013-11-16 03:44:00,36.0,32.0,30.17,West,274,0.0,0.0,86,0.00,,,0.00,weatherlink.com 1.10,2013-11-16 08:44:00,
2013-11-16 03:59:00,35.0,32.0,30.17,West,274,0.0,1.0,87,0.00,,,0.00,weatherlink.com 1.10,2013-11-16 08:59:00,
2013-11-16 04:14:00,33.9,31.0,30.17,West,274,0.0,0.0,87,0.00,,,0.00,weatherlink.com 1.10,2013-11-16 09:14:00,
2013-11-16 04:29:00,33.5,31.0,30.18,North,358,0.0,1.0,89,0.00,,,0.00,weatherlink.com 1.10,2013-11-16 09:29:00,
2013-11-16 04:44:00,32.9,30.0,30.18,North,359,0.0,0.0,89,0.00,,,0.00,weatherlink.com 1.10,2013-11-16 09:44:00,
2013-11-16 04:59:00,32.6,30.0,30.18,North,358,0.0,0.0,90,0.00,,,0.00,weatherlink.com 1.10,2013-11-16 09:59:00,
2013-11-16 05:14:00,32.2,30.0,30.19,North,359,0.0,0.0,90,0.00,,,0.00,weatherlink.com 1.10,2013-11-16 10:14:00,
2013-11-16 05:29:00,31.9,30.0,30.19,North,359,0.0,0.0,91,0.00,,,0.00,weatherlink.com 1.10,2013-11-16 10:29:00,
2013-11-16 05:44:00,31.5,29.0,30.19,North,358,0.0,0.0,91,0.00,,,0.00,weatherlink.com 1.10,2013-11-16 10:44:00,
2013-11-16 05:59:00,31.3,29.0,30.19,North,358,0.0,0.0,91,0.00,,,0.00,weatherlink.com 1.10,2013-11-16 10:59:00,
2013-11-16 06:14:00,31.1,29.0,30.19,North,358,0.0,0.0,91,0.00,,,0.00,weatherlink.com 1.10,2013-11-16 11:14:00,
2013-11-16 06:29:00,30.9,29.0,30.20,North,359,0.0,0.0,92,0.00,,,0.00,weatherlink.com 1.10,2013-11-16 11:29:00,
2013-11-16 06:44:00,30.8,29.0,30.20,North,359,0.0,0.0,92,0.00,,,0.00,weatherlink.com 1.10,2013-11-16 11:44:00,
2013-11-16 06:59:00,31.0,29.0,30.21,NE,34,1.0,2.0,92,0.00,,,0.00,weatherlink.com 1.10,2013-11-16 11:59:00,
2013-11-16 07:14:00,30.9,29.0,30.21,NE,34,0.0,0.0,93,0.00,,,0.00,weatherlink.com 1.10,2013-11-16 12:14:00,
2013-11-16 07:29:00,31.1,29.0,30.21,NNW,342,0.0,0.0,93,0.00,,,0.00,weatherlink.com 1.10,2013-11-16 12:29:00,
2013-11-16 07:44:00,31.4,30.0,30.22,NNW,343,0.0,1.0,93,0.00,,,0.00,weatherlink.com 1.10,2013-11-16 12:44:00,
2013-11-16 07:59:00,32.3,31.0,30.22,North,357,0.0,0.0,94,0.00,,,0.00,weatherlink.com 1.10,2013-11-16 12:59:00,
2013-11-16 08:14:00,33.6,32.0,30.23,North,356,0.0,0.0,94,0.00,,,0.00,weatherlink.com 1.10,2013-11-16 13:14:00,
2013-11-16 08:29:00,35.8,34.0,30.22,North,357,0.0,0.0,94,0.00,,,0.00,weatherlink.com 1.10,2013-11-16 13:29:00,
2013-11-16 08:44:00,37.7,36.0,30.23,North,357,0.0,0.0,94,0.00,,,0.00,weatherlink.com 1.10,2013-11-16 13:44:00,
2013-11-16 09:00:00,39.5,38.0,30.23,North,357,0.0,0.0,94,0.00,,,0.00,weatherlink.com 1.10,2013-11-16 14:00:00,
2013-11-16 09:15:00,42.4,41.0,30.23,North,357,0.0,0.0,94,0.00,,,0.00,weatherlink.com 1.10,2013-11-16 14:15:00,
2013-11-16 09:30:00,46.0,44.0,30.23,North,357,0.0,1.0,92,0.00,,,0.00,weatherlink.com 1.10,2013-11-16 14:30:00,
2013-11-16 09:45:00,48.6,44.0,30.23,East,95,0.0,4.0,84,0.00,,,0.00,weatherlink.com 1.10,2013-11-16 14:45:00,
2013-11-16 10:00:00,51.0,44.0,30.23,ESE,103,0.0,3.0,78,0.00,,,0.00,weatherlink.com 1.10,2013-11-16 15:00:00,
2013-11-16 10:15:00,52.3,44.0,30.23,ESE,117,1.0,2.0,74,0.00,,,0.00,weatherlink.com 1.10,2013-11-16 15:15:00,
2013-11-16 10:30:00,53.2,44.0,30.23,SSE,166,0.0,4.0,72,0.00,,,0.00,weatherlink.com 1.10,2013-11-16 15:30:00,
2013-11-16 10:46:00,54.7,45.0,30.22,SE,124,0.0,2.0,70,0.00,,,0.00,weatherlink.com 1.10,2013-11-16 15:46:00,
2013-11-16 11:00:00,55.3,46.0,30.22,East,89,2.0,4.0,70,0.00,,,0.00,weatherlink.com 1.10,2013-11-16 16:00:00,
2013-11-16 11:15:00,56.2,46.0,30.22,NNE,15,0.0,3.0,68,0.00,,,0.00,weatherlink.com 1.10,2013-11-16 16:15:00,
2013-11-16 11:30:00,56.7,47.0,30.21,ESE,104,2.0,6.0,69,0.00,,,0.00,weatherlink.com 1.10,2013-11-16 16:30:00,
2013-11-16 11:45:00,57.3,46.0,30.20,WNW,285,2.0,5.0,66,0.00,,,0.00,weatherlink.com 1.10,2013-11-16 16:45:00,
2013-11-16 12:00:00,58.2,46.0,30.19,SE,124,3.0,6.0,65,0.00,,,0.00,weatherlink.com 1.10,2013-11-16 17:00:00,
2013-11-16 12:15:00,58.5,46.0,30.19,WSW,253,0.0,3.0,63,0.00,,,0.00,weatherlink.com 1.10,2013-11-16 17:15:00,
2013-11-16 12:30:00,59.0,46.0,30.18,ESE,121,1.0,6.0,62,0.00,,,0.00,weatherlink.com 1.10,2013-11-16 17:30:00,
2013-11-16 12:45:00,59.6,46.0,30.17,WSW,242,6.0,7.0,62,0.00,,,0.00,weatherlink.com 1.10,2013-11-16 17:45:00,
2013-11-16 13:00:00,60.2,46.0,30.16,East,97,1.0,4.0,60,0.00,,,0.00,weatherlink.com 1.10,2013-11-16 18:00:00,
2013-11-16 13:15:00,60.4,46.0,30.16,ENE,65,3.0,6.0,60,0.00,,,0.00,weatherlink.com 1.10,2013-11-16 18:15:00,
2013-11-16 13:30:00,60.9,46.0,30.15,East,96,6.0,7.0,58,0.00,,,0.00,weatherlink.com 1.10,2013-11-16 18:30:00,
2013-11-16 13:45:00,61.6,46.0,30.14,SSW,203,2.0,5.0,58,0.00,,,0.00,weatherlink.com 1.10,2013-11-16 18:45:00,
2013-11-16 14:00:00,61.9,47.0,30.13,SW,231,1.0,4.0,58,0.00,,,0.00,weatherlink.com 1.10,2013-11-16 19:00:00,
2013-11-16 14:15:00,61.7,47.0,30.12,WNW,283,1.0,7.0,58,0.00,,,0.00,weatherlink.com 1.10,2013-11-16 19:15:00,
2013-11-16 14:30:00,61.3,46.0,30.12,ENE,72,2.0,4.0,58,0.00,,,0.00,weatherlink.com 1.10,2013-11-16 19:30:00,
2013-11-16 14:45:00,62.0,46.0,30.11,WSW,239,4.0,5.0,57,0.00,,,0.00,weatherlink.com 1.10,2013-11-16 19:45:00,
2013-11-16 15:01:00,62.2,47.0,30.11,WSW,245,0.0,1.0,58,0.00,,,0.00,weatherlink.com 1.10,2013-11-16 20:01:00,
2013-11-16 15:16:00,62.2,47.0,30.12,WSW,250,0.0,5.0,58,0.00,,,0.00,weatherlink.com 1.10,2013-11-16 20:16:00,
2013-11-16 15:31:00,61.8,47.0,30.11,East,90,0.0,4.0,59,0.00,,,0.00,weatherlink.com 1.10,2013-11-16 20:31:00,
2013-11-16 15:46:00,61.3,47.0,30.11,East,81,2.0,3.0,60,0.00,,,0.00,weatherlink.com 1.10,2013-11-16 20:46:00,
2013-11-16 16:01:00,60.7,47.0,30.11,West,276,0.0,2.0,61,0.00,,,0.00,weatherlink.com 1.10,2013-11-16 21:01:00,
2013-11-16 16:16:00,60.1,46.0,30.11,SE,134,3.0,6.0,60,0.00,,,0.00,weatherlink.com 1.10,2013-11-16 21:16:00,
2013-11-16 16:31:00,59.4,46.0,30.12,SSE,150,1.0,2.0,61,0.00,,,0.00,weatherlink.com 1.10,2013-11-16 21:31:00,
2013-11-16 16:46:00,58.9,46.0,30.11,WNW,295,0.0,3.0,62,0.00,,,0.00,weatherlink.com 1.10,2013-11-16 21:46:00,
2013-11-16 17:01:00,58.0,46.0,30.11,ESE,117,0.0,3.0,64,0.00,,,0.00,weatherlink.com 1.10,2013-11-16 22:01:00,
2013-11-16 17:16:00,57.2,46.0,30.10,ENE,64,0.0,3.0,66,0.00,,,0.00,weatherlink.com 1.10,2013-11-16 22:16:00,
2013-11-16 17:31:00,56.6,46.0,30.11,East,96,2.0,4.0,67,0.00,,,0.00,weatherlink.com 1.10,2013-11-16 22:31:00,
2013-11-16 17:46:00,56.7,46.0,30.11,SSE,158,1.0,3.0,67,0.00,,,0.00,weatherlink.com 1.10,2013-11-16 22:46:00,
2013-11-16 18:01:00,56.8,46.0,30.11,East,91,0.0,5.0,68,0.00,,,0.00,weatherlink.com 1.10,2013-11-16 23:01:00,
2013-11-16 18:16:00,57.3,46.0,30.12,South,173,0.0,3.0,67,0.00,,,0.00,weatherlink.com 1.10,2013-11-16 23:16:00,
2013-11-16 18:31:00,57.2,47.0,30.11,WNW,290,1.0,5.0,68,0.00,,,0.00,weatherlink.com 1.10,2013-11-16 23:31:00,
2013-11-16 18:46:00,57.1,47.0,30.11,ESE,115,0.0,3.0,68,0.00,,,0.00,weatherlink.com 1.10,2013-11-16 23:46:00,
2013-11-16 19:01:00,57.0,46.0,30.11,NNE,23,0.0,3.0,68,0.00,,,0.00,weatherlink.com 1.10,2013-11-17 00:01:00,
2013-11-16 19:16:00,56.8,46.0,30.11,East,87,0.0,4.0,68,0.00,,,0.00,weatherlink.com 1.10,2013-11-17 00:16:00,
2013-11-16 19:31:00,56.4,46.0,30.11,NE,47,0.0,2.0,69,0.00,,,0.00,weatherlink.com 1.10,2013-11-17 00:31:00,
2013-11-16 19:46:00,55.9,46.0,30.11,ENE,69,0.0,1.0,69,0.00,,,0.00,weatherlink.com 1.10,2013-11-17 00:46:00,
2013-11-16 20:01:00,54.7,46.0,30.10,South,187,0.0,1.0,72,0.00,,,0.00,weatherlink.com 1.10,2013-11-17 01:01:00,
2013-11-16 20:16:00,54.6,46.0,30.10,SW,224,0.0,1.0,73,0.00,,,0.00,weatherlink.com 1.10,2013-11-17 01:16:00,
2013-11-16 20:31:00,54.3,46.0,30.09,ESE,117,0.0,1.0,73,0.00,,,0.00,weatherlink.com 1.10,2013-11-17 01:31:00,
2013-11-16 20:46:00,54.3,46.0,30.09,NE,50,0.0,1.0,74,0.00,,,0.00,weatherlink.com 1.10,2013-11-17 01:46:00,
2013-11-16 21:01:00,53.4,46.0,30.09,North,9,0.0,1.0,75,0.00,,,0.00,weatherlink.com 1.10,2013-11-17 02:01:00,
2013-11-16 21:16:00,52.3,45.0,30.09,NW,318,0.0,1.0,76,0.00,,,0.00,weatherlink.com 1.10,2013-11-17 02:16:00,
2013-11-16 21:31:00,50.8,44.0,30.09,NNW,335,0.0,1.0,78,0.00,,,0.00,weatherlink.com 1.10,2013-11-17 02:31:00,
2013-11-16 21:46:00,49.7,44.0,30.08,NNW,333,0.0,0.0,80,0.00,,,0.00,weatherlink.com 1.10,2013-11-17 02:46:00,
2013-11-16 22:01:00,49.1,44.0,30.07,NNW,333,0.0,0.0,82,0.00,,,0.00,weatherlink.com 1.10,2013-11-17 03:01:00,
2013-11-16 22:16:00,49.6,45.0,30.06,NNW,333,0.0,0.0,83,0.00,,,0.00,weatherlink.com 1.10,2013-11-17 03:16:00,
2013-11-16 22:31:00,49.4,44.0,30.06,ESE,115,0.0,1.0,83,0.00,,,0.00,weatherlink.com 1.10,2013-11-17 03:31:00,
2013-11-16 22:46:00,49.7,45.0,30.06,ESE,117,0.0,0.0,84,0.00,,,0.00,weatherlink.com 1.10,2013-11-17 03:46:00,
2013-11-16 23:01:00,50.0,45.0,30.05,WNW,293,0.0,2.0,84,0.00,,,0.00,weatherlink.com 1.10,2013-11-17 04:01:00,
2013-11-16 23:16:00,49.4,45.0,30.06,SW,225,0.0,1.0,84,0.00,,,0.00,weatherlink.com 1.10,2013-11-17 04:16:00,
2013-11-16 23:31:00,48.9,45.0,30.05,South,181,0.0,0.0,86,0.00,,,0.00,weatherlink.com 1.10,2013-11-17 04:31:00,
2013-11-16 23:46:00,50.9,47.0,30.05,NW,314,1.0,2.0,85,0.00,,,0.00,weatherlink.com 1.10,2013-11-17 04:46:00,